Time;durP1;ratioP1;P1;durP2;ratioP2;P2;SDS_P1;SDS_P2;PMS_P1;PMS_P2;Temp;Humidity;BMP_temperature;BMP_pressure;BME280_temperature;BME280_humidity;BME280_pressure;Samples;Min_cycle;Max_cycle;Signal;HPM_P1;HPM_P2
2024/02/19 00:02:06;;;;;;;1.50;0.80;;;22.60;63.30;;;;;;5073879;28;20550;-83
2024/02/19 00:04:33;;;;;;;1.40;0.70;;;22.50;63.30;;;;;;5074518;28;20445;-85
2024/02/19 00:07:00;;;;;;;1.40;0.70;;;22.50;63.30;;;;;;5074843;28;20459;-83
2024/02/19 00:09:28;;;;;;;1.63;0.80;;;22.50;63.30;;;;;;5075016;28;20584;-82
2024/02/19 00:11:55;;;;;;;1.30;0.70;;;22.50;63.40;;;;;;5077564;28;20436;-82
2024/02/19 00:14:22;;;;;;;1.60;0.93;;;22.50;63.40;;;;;;5077801;28;20518;-82
2024/02/19 00:16:49;;;;;;;1.40;0.70;;;22.50;63.40;;;;;;5078531;28;20448;-79
2024/02/19 00:19:15;;;;;;;2.17;0.90;;;22.50;63.40;;;;;;5074370;28;20429;-83
2024/02/19 00:21:42;;;;;;;1.60;0.90;;;22.40;63.30;;;;;;5074378;28;20429;-82
2024/02/19 00:24:09;;;;;;;1.57;0.73;;;22.40;63.30;;;;;;5074593;28;20867;-82
2024/02/19 00:26:37;;;;;;;1.60;0.77;;;22.40;63.30;;;;;;5074515;28;20436;-82
2024/02/19 00:29:04;;;;;;;1.60;0.80;;;22.40;63.30;;;;;;5073867;28;20445;-81
2024/02/19 00:31:32;;;;;;;1.50;0.80;;;22.50;63.50;;;;;;5074011;28;20482;-81
2024/02/19 00:33:58;;;;;;;1.50;0.80;;;22.40;63.30;;;;;;5073998;28;20445;-82
2024/02/19 00:36:25;;;;;;;1.50;0.80;;;22.50;63.50;;;;;;5074048;28;20442;-81
2024/02/19 00:38:54;;;;;;;1.40;0.70;;;22.40;63.30;;;;;;5074088;28;20428;-82
2024/02/19 00:41:21;;;;;;;1.50;0.80;;;22.40;63.30;;;;;;5074993;28;20519;-80
2024/02/19 00:43:50;;;;;;;2.00;0.90;;;22.40;63.40;;;;;;5077368;28;20842;-81
2024/02/19 00:46:16;;;;;;;1.50;0.80;;;22.40;63.30;;;;;;5076621;28;20437;-83
2024/02/19 00:48:43;;;;;;;2.50;0.90;;;22.40;63.30;;;;;;5073754;28;20460;-83
2024/02/19 00:51:10;;;;;;;2.00;0.80;;;22.40;63.40;;;;;;5073769;28;20480;-83
2024/02/19 00:53:38;;;;;;;2.57;1.00;;;22.40;63.30;;;;;;5073371;28;20448;-83
2024/02/19 00:56:05;;;;;;;1.40;0.70;;;22.30;63.30;;;;;;5073713;28;20969;-88
2024/02/19 00:58:32;;;;;;;2.37;1.00;;;22.30;63.20;;;;;;5073492;28;20447;-83
2024/02/19 01:01:00;;;;;;;1.47;0.77;;;22.30;63.30;;;;;;5073654;28;20440;-83
2024/02/19 01:03:27;;;;;;;2.43;0.97;;;22.30;63.30;;;;;;5073290;28;20799;-83
2024/02/19 01:05:54;;;;;;;2.07;0.73;;;22.30;63.30;;;;;;5073425;28;20480;-83
2024/02/19 01:08:20;;;;;;;1.83;0.90;;;22.30;64.10;;;;;;5073316;28;20436;-89
2024/02/19 01:10:47;;;;;;;1.93;0.83;;;22.30;63.20;;;;;;5073415;28;20476;-83
2024/02/19 01:13:14;;;;;;;2.63;0.93;;;22.30;63.30;;;;;;5073492;28;20445;-83
2024/02/19 01:15:41;;;;;;;2.03;1.10;;;22.30;63.30;;;;;;5073609;28;20441;-83
2024/02/19 01:18:09;;;;;;;1.40;0.77;;;22.30;63.30;;;;;;5072997;28;20983;-82
2024/02/19 01:20:36;;;;;;;1.67;0.80;;;22.30;63.30;;;;;;5073264;28;20532;-83
2024/02/19 01:23:03;;;;;;;1.60;0.83;;;22.30;63.30;;;;;;5073011;28;20436;-83
2024/02/19 01:25:30;;;;;;;1.50;0.93;;;22.30;63.30;;;;;;5073134;28;20919;-83
2024/02/19 01:27:57;;;;;;;1.60;0.80;;;22.20;63.20;;;;;;5073055;28;20535;-83
2024/02/19 01:30:24;;;;;;;1.60;0.80;;;22.20;63.30;;;;;;5072772;28;20991;-83
2024/02/19 01:32:51;;;;;;;1.50;0.80;;;22.30;63.30;;;;;;5073392;28;20446;-85
2024/02/19 01:35:19;;;;;;;2.20;0.80;;;22.20;63.20;;;;;;5073154;28;20441;-84
2024/02/19 01:37:46;;;;;;;1.67;0.90;;;22.20;63.10;;;;;;5073719;28;20811;-83
2024/02/19 01:40:13;;;;;;;1.87;1.00;;;22.20;63.20;;;;;;5072944;28;20447;-83
2024/02/19 01:42:40;;;;;;;1.40;0.70;;;22.30;63.30;;;;;;5073517;28;20440;-89
2024/02/19 01:45:22;;;;;;;1.53;0.90;;;22.20;63.10;;;;;;5073001;28;20444;-83
2024/02/19 01:47:49;;;;;;;1.83;0.90;;;22.30;63.30;;;;;;5073006;28;20475;-84
2024/02/19 01:50:16;;;;;;;1.70;0.90;;;22.20;63.10;;;;;;5072992;28;20916;-83
2024/02/19 01:52:45;;;;;;;1.50;0.90;;;22.30;63.20;;;;;;5072804;28;20519;-89
2024/02/19 01:55:13;;;;;;;2.27;0.70;;;22.30;63.20;;;;;;5072816;28;20505;-88
2024/02/19 01:57:42;;;;;;;1.30;0.70;;;22.30;63.20;;;;;;5072932;28;20440;-89
2024/02/19 02:00:10;;;;;;;1.40;0.80;;;22.30;63.10;;;;;;5072701;28;20510;-84
2024/02/19 02:02:38;;;;;;;1.40;0.90;;;22.30;63.00;;;;;;5072725;28;20441;-83
2024/02/19 02:05:06;;;;;;;1.80;0.80;;;22.40;63.20;;;;;;5073116;28;20453;-82
2024/02/19 02:07:33;;;;;;;1.90;0.80;;;22.30;63.00;;;;;;5072893;28;20446;-84
2024/02/19 02:10:04;;;;;;;1.97;0.90;;;22.30;62.90;;;;;;5072703;28;20480;-84
2024/02/19 02:12:31;;;;;;;1.47;0.70;;;22.30;62.90;;;;;;5073145;28;20447;-83
2024/02/19 02:14:58;;;;;;;1.40;0.70;;;22.30;62.90;;;;;;5072648;28;20432;-83
2024/02/19 02:17:25;;;;;;;1.60;0.80;;;22.30;62.90;;;;;;5072759;28;20467;-84
2024/02/19 02:19:52;;;;;;;1.40;0.70;;;22.30;62.80;;;;;;5072830;28;20437;-83
2024/02/19 02:22:19;;;;;;;1.50;0.80;;;22.30;62.80;;;;;;5072995;28;20437;-83
2024/02/19 02:24:45;;;;;;;2.37;0.90;;;22.30;62.80;;;;;;5072563;28;20432;-84
2024/02/19 02:27:14;;;;;;;1.70;0.90;;;22.30;62.80;;;;;;5072708;28;20436;-87
2024/02/19 02:29:40;;;;;;;2.03;0.73;;;22.30;62.80;;;;;;5072977;28;20432;-83
2024/02/19 02:32:08;;;;;;;2.37;0.90;;;22.30;62.80;;;;;;5072413;28;20478;-83
2024/02/19 02:34:35;;;;;;;2.07;0.87;;;22.30;62.80;;;;;;5073423;28;20931;-83
2024/02/19 02:37:03;;;;;;;1.50;0.70;;;22.30;62.80;;;;;;5072609;28;20440;-89
2024/02/19 02:39:31;;;;;;;2.37;0.93;;;22.30;62.80;;;;;;5072504;28;20440;-89
2024/02/19 02:41:58;;;;;;;1.50;0.70;;;22.30;62.80;;;;;;5072612;28;20440;-83
2024/02/19 02:44:26;;;;;;;1.53;0.77;;;22.30;62.70;;;;;;5072464;28;20436;-83
2024/02/19 02:46:53;;;;;;;1.30;0.70;;;22.30;62.70;;;;;;5072214;28;20475;-83
2024/02/19 02:49:20;;;;;;;1.70;0.70;;;22.30;62.60;;;;;;5072682;28;20458;-84
2024/02/19 02:51:47;;;;;;;1.70;0.70;;;22.30;62.70;;;;;;5072525;28;20488;-83
2024/02/19 02:54:14;;;;;;;2.03;0.80;;;22.30;62.70;;;;;;5072065;28;20439;-82
2024/02/19 02:56:41;;;;;;;1.70;0.80;;;22.30;62.60;;;;;;5072042;28;20440;-83
2024/02/19 02:59:08;;;;;;;1.90;0.80;;;22.30;62.60;;;;;;5072219;28;20815;-82
2024/02/19 03:01:37;;;;;;;1.40;0.70;;;22.30;62.60;;;;;;5072424;28;20785;-82
2024/02/19 03:04:03;;;;;;;1.87;0.80;;;22.30;62.50;;;;;;5072132;28;20441;-83
2024/02/19 03:06:30;;;;;;;1.87;0.90;;;22.30;62.50;;;;;;5075683;28;20535;-83
2024/02/19 03:08:57;;;;;;;1.40;0.70;;;22.30;62.40;;;;;;5075769;28;20775;-82
2024/02/19 03:11:24;;;;;;;1.50;0.80;;;22.30;62.40;;;;;;5075765;28;20827;-83
2024/02/19 03:13:51;;;;;;;1.87;0.80;;;22.30;62.40;;;;;;5075692;28;20436;-85
2024/02/19 03:16:18;;;;;;;1.60;0.80;;;22.30;62.40;;;;;;5075528;28;20440;-82
2024/02/19 03:18:46;;;;;;;2.00;0.90;;;22.40;62.40;;;;;;5075479;28;20995;-82
2024/02/19 03:21:15;;;;;;;1.70;0.97;;;22.30;62.30;;;;;;5075613;28;20436;-83
2024/02/19 03:23:51;;;;;;;2.43;0.90;;;22.30;62.30;;;;;;5075449;28;20443;-82
2024/02/19 03:26:24;;;;;;;1.77;0.90;;;22.40;62.40;;;;;;5075429;28;20436;-82
2024/02/19 03:28:51;;;;;;;1.50;0.80;;;22.40;62.30;;;;;;5075541;28;20425;-82
2024/02/19 03:31:18;;;;;;;1.43;0.80;;;22.30;62.30;;;;;;5075017;28;20821;-83
2024/02/19 03:33:46;;;;;;;2.17;1.03;;;22.40;62.30;;;;;;5075139;28;20955;-88
2024/02/19 03:36:13;;;;;;;1.40;0.70;;;22.40;62.30;;;;;;5075192;28;20467;-82
2024/02/19 03:38:40;;;;;;;1.50;0.70;;;22.30;62.20;;;;;;5075259;28;20477;-82
2024/02/19 03:41:07;;;;;;;1.47;0.70;;;22.40;62.30;;;;;;5075035;28;20451;-82
2024/02/19 03:43:34;;;;;;;1.90;1.00;;;22.40;62.30;;;;;;5074949;28;20448;-82
2024/02/19 03:46:04;;;;;;;1.70;0.90;;;22.40;62.30;;;;;;5075190;28;20801;-82
2024/02/19 03:48:30;;;;;;;1.97;0.70;;;22.40;62.30;;;;;;5074844;28;20468;-81
2024/02/19 03:50:59;;;;;;;1.30;0.70;;;22.40;62.30;;;;;;5074464;28;20480;-81
2024/02/19 03:53:25;;;;;;;1.40;0.70;;;22.40;62.20;;;;;;5074549;28;20455;-83
2024/02/19 03:55:52;;;;;;;1.47;0.77;;;22.40;62.20;;;;;;5074085;28;20444;-83
2024/02/19 03:58:19;;;;;;;1.50;0.80;;;22.40;62.20;;;;;;5075799;28;20440;-81
2024/02/19 04:00:46;;;;;;;1.70;0.90;;;22.40;62.10;;;;;;5077703;28;20440;-82
2024/02/19 04:03:13;;;;;;;1.50;0.80;;;22.40;62.10;;;;;;5077338;28;20440;-83
2024/02/19 04:05:39;;;;;;;1.60;0.80;;;22.40;62.00;;;;;;5074550;28;20439;-83
2024/02/19 04:08:08;;;;;;;1.53;0.80;;;22.40;62.10;;;;;;5074219;28;20464;-83
2024/02/19 04:10:34;;;;;;;1.70;0.80;;;22.40;62.00;;;;;;5074481;28;20486;-83
2024/02/19 04:13:01;;;;;;;2.07;1.00;;;22.40;62.00;;;;;;5074728;28;20440;-83
2024/02/19 04:15:28;;;;;;;2.17;1.03;;;22.50;62.10;;;;;;5074338;28;20437;-83
2024/02/19 04:17:55;;;;;;;1.80;0.90;;;22.40;61.90;;;;;;5075832;28;20492;-81
2024/02/19 04:20:22;;;;;;;1.87;0.83;;;22.40;62.00;;;;;;5075895;28;20432;-84
2024/02/19 04:22:48;;;;;;;1.60;0.80;;;22.40;62.00;;;;;;5075495;28;20447;-82
2024/02/19 04:25:16;;;;;;;1.47;0.73;;;22.40;62.00;;;;;;5074257;28;20436;-81
2024/02/19 04:27:44;;;;;;;1.80;0.80;;;22.40;62.00;;;;;;5074574;28;20444;-82
2024/02/19 04:30:11;;;;;;;1.60;0.90;;;22.40;61.90;;;;;;5074074;28;20488;-82
2024/02/19 04:32:38;;;;;;;2.00;0.70;;;22.40;61.90;;;;;;5074257;28;20930;-82
2024/02/19 04:35:05;;;;;;;1.97;0.80;;;22.40;61.90;;;;;;5074064;28;20436;-81
2024/02/19 04:37:32;;;;;;;2.37;0.60;;;22.40;61.90;;;;;;5074349;28;20443;-82
2024/02/19 04:39:59;;;;;;;1.40;0.70;;;22.40;61.90;;;;;;5074464;28;20448;-81
2024/02/19 04:42:27;;;;;;;1.50;0.80;;;22.40;61.90;;;;;;5073381;28;20528;-82
2024/02/19 04:44:54;;;;;;;1.80;0.70;;;22.40;61.90;;;;;;5074616;28;21269;-81
2024/02/19 04:47:20;;;;;;;2.17;0.90;;;22.40;61.90;;;;;;5075114;28;20456;-82
2024/02/19 04:49:47;;;;;;;1.50;0.80;;;22.40;61.90;;;;;;5075752;28;20441;-82
2024/02/19 04:52:14;;;;;;;1.90;0.80;;;22.40;61.80;;;;;;5074712;28;21007;-81
2024/02/19 04:54:41;;;;;;;1.50;0.77;;;22.40;61.80;;;;;;5074312;28;20442;-82
2024/02/19 04:57:08;;;;;;;1.60;0.70;;;22.50;61.90;;;;;;5073411;28;20439;-81
2024/02/19 04:59:36;;;;;;;2.03;0.90;;;22.40;61.70;;;;;;5073117;28;20452;-81
2024/02/19 05:02:03;;;;;;;1.60;0.90;;;22.40;61.80;;;;;;5073129;28;20443;-80
2024/02/19 05:04:30;;;;;;;1.60;0.70;;;22.40;61.70;;;;;;5073067;28;20440;-80
2024/02/19 05:06:57;;;;;;;1.47;0.77;;;22.40;61.70;;;;;;5073017;28;20433;-80
2024/02/19 05:09:23;;;;;;;1.60;0.80;;;22.50;61.90;;;;;;5073363;28;20443;-85
2024/02/19 05:11:51;;;;;;;1.50;0.87;;;22.50;61.80;;;;;;5073923;28;20494;-82
2024/02/19 05:14:18;;;;;;;1.70;0.70;;;22.50;61.80;;;;;;5074541;28;20449;-83
2024/02/19 05:16:46;;;;;;;1.40;0.70;;;22.50;61.70;;;;;;5073805;28;20464;-81
2024/02/19 05:19:13;;;;;;;1.50;0.77;;;22.50;61.80;;;;;;5073455;28;20458;-81
2024/02/19 05:21:41;;;;;;;1.70;0.90;;;22.50;61.70;;;;;;5074255;28;20432;-81
2024/02/19 05:24:09;;;;;;;1.50;0.70;;;22.50;61.70;;;;;;5074756;28;20490;-82
2024/02/19 05:26:36;;;;;;;1.40;0.77;;;22.50;61.60;;;;;;5073284;28;20440;-83
2024/02/19 05:29:04;;;;;;;3.77;1.30;;;22.50;61.60;;;;;;5072830;28;20455;-88
2024/02/19 05:31:35;;;;;;;1.70;0.80;;;22.60;61.60;;;;;;5072956;28;20831;-82
2024/02/19 05:34:04;;;;;;;1.80;1.10;;;22.60;61.60;;;;;;5073255;28;20448;-82
2024/02/19 05:36:31;;;;;;;2.37;0.90;;;22.60;61.60;;;;;;5072776;28;20436;-81
2024/02/19 05:38:58;;;;;;;1.60;0.80;;;22.60;61.60;;;;;;5073437;28;20436;-82
2024/02/19 05:41:25;;;;;;;1.40;0.70;;;22.60;61.60;;;;;;5072814;28;20437;-82
2024/02/19 05:43:52;;;;;;;1.50;0.80;;;22.60;61.50;;;;;;5073192;28;20444;-83
2024/02/19 05:46:20;;;;;;;3.10;1.10;;;22.60;61.50;;;;;;5073067;28;20519;-82
2024/02/19 05:48:48;;;;;;;2.00;0.90;;;22.60;61.40;;;;;;5073306;28;20443;-82
2024/02/19 05:51:16;;;;;;;1.40;0.67;;;22.70;61.50;;;;;;5072713;28;20480;-81
2024/02/19 05:53:43;;;;;;;1.60;0.80;;;22.60;61.40;;;;;;5072638;28;20440;-82
2024/02/19 05:56:10;;;;;;;2.30;0.97;;;22.60;61.40;;;;;;5072401;28;20805;-82
2024/02/19 05:58:40;;;;;;;2.80;0.90;;;22.60;61.40;;;;;;5072518;28;21192;-82
2024/02/19 06:01:07;;;;;;;1.50;0.80;;;22.60;61.40;;;;;;5072459;28;20444;-83
2024/02/19 06:03:35;;;;;;;1.80;0.70;;;22.60;61.50;;;;;;5072699;28;20437;-81
2024/02/19 06:06:02;;;;;;;1.80;0.80;;;22.60;61.50;;;;;;5072554;28;20443;-82
2024/02/19 06:08:30;;;;;;;2.47;0.90;;;22.60;61.40;;;;;;5072154;28;20440;-82
2024/02/19 06:10:57;;;;;;;1.40;0.80;;;22.60;61.40;;;;;;5072680;28;20447;-83
2024/02/19 06:13:24;;;;;;;1.67;0.90;;;22.60;61.40;;;;;;5072607;28;20443;-82
2024/02/19 06:15:52;;;;;;;1.90;0.90;;;22.60;61.40;;;;;;5072555;28;20440;-82
2024/02/19 06:18:19;;;;;;;1.73;0.87;;;22.70;61.50;;;;;;5072430;28;20456;-82
2024/02/19 06:20:47;;;;;;;1.60;0.83;;;22.60;61.40;;;;;;5072469;28;20451;-89
2024/02/19 06:23:14;;;;;;;1.70;0.83;;;22.60;61.40;;;;;;5072413;28;20451;-83
2024/02/19 06:25:43;;;;;;;1.70;1.00;;;22.60;61.40;;;;;;5072364;28;20440;-81
2024/02/19 06:28:10;;;;;;;1.83;0.97;;;22.70;61.40;;;;;;5072668;28;20832;-81
2024/02/19 06:30:37;;;;;;;1.40;0.70;;;22.70;61.40;;;;;;5072354;28;20472;-81
2024/02/19 06:33:04;;;;;;;1.50;0.80;;;22.70;61.40;;;;;;5072729;28;20488;-81
2024/02/19 06:35:30;;;;;;;1.50;0.80;;;22.70;61.40;;;;;;5072821;28;20464;-82
2024/02/19 06:37:57;;;;;;;1.63;0.87;;;22.70;61.50;;;;;;5073023;28;20515;-89
2024/02/19 06:40:24;;;;;;;2.03;0.80;;;22.70;61.40;;;;;;5074587;28;20452;-86
2024/02/19 06:42:52;;;;;;;1.60;0.90;;;22.70;61.40;;;;;;5076570;28;20440;-92
2024/02/19 06:45:19;;;;;;;1.53;0.80;;;22.70;61.40;;;;;;5076488;28;20448;-82
2024/02/19 06:47:46;;;;;;;1.57;0.83;;;22.70;61.50;;;;;;5075799;28;20468;-82
2024/02/19 06:50:14;;;;;;;2.57;1.10;;;22.70;61.50;;;;;;5075010;28;20452;-81
2024/02/19 06:52:44;;;;;;;2.93;1.43;;;22.70;61.50;;;;;;5073906;28;20488;-81
2024/02/19 06:55:11;;;;;;;1.83;0.90;;;22.70;61.40;;;;;;5075582;28;20443;-81
2024/02/19 06:57:38;;;;;;;1.63;0.83;;;22.70;61.50;;;;;;5075557;28;20645;-83
2024/02/19 07:00:09;;;;;;;2.17;0.90;;;22.70;61.70;;;;;;5075579;28;20968;-82
2024/02/19 07:02:36;;;;;;;3.47;1.50;;;22.70;61.80;;;;;;5074898;28;20432;-82
2024/02/19 07:05:05;;;;;;;2.00;0.90;;;22.70;62.00;;;;;;5075581;28;20440;-82
2024/02/19 07:07:32;;;;;;;2.17;0.80;;;22.70;62.00;;;;;;5075688;28;20447;-82
2024/02/19 07:09:59;;;;;;;2.00;1.00;;;22.70;62.00;;;;;;5075526;28;20443;-83
2024/02/19 07:12:26;;;;;;;1.70;0.80;;;22.90;62.30;;;;;;5075732;28;20499;-82
2024/02/19 07:14:55;;;;;;;1.90;0.90;;;22.70;62.20;;;;;;5081085;28;20440;-82
2024/02/19 07:17:23;;;;;;;2.43;1.10;;;22.70;62.10;;;;;;5079559;28;20828;-82
2024/02/19 07:19:50;;;;;;;3.20;0.90;;;22.70;62.20;;;;;;5077344;28;20442;-82
2024/02/19 07:22:17;;;;;;;3.33;0.97;;;22.70;62.20;;;;;;5075617;28;20436;-82
2024/02/19 07:24:43;;;;;;;1.70;0.80;;;22.70;62.30;;;;;;5075955;28;20447;-83
2024/02/19 07:27:10;;;;;;;1.90;0.80;;;22.70;62.30;;;;;;5075390;28;20444;-83
2024/02/19 07:29:37;;;;;;;2.73;1.20;;;22.80;62.40;;;;;;5075711;28;20440;-83
2024/02/19 07:32:04;;;;;;;2.47;1.10;;;22.80;62.50;;;;;;5076200;28;20498;-83
2024/02/19 07:34:32;;;;;;;2.23;1.50;;;22.70;62.40;;;;;;5075279;28;20483;-82
2024/02/19 07:36:59;;;;;;;3.10;1.93;;;22.80;62.60;;;;;;5075067;28;20453;-82
2024/02/19 07:39:26;;;;;;;2.70;1.50;;;22.80;62.60;;;;;;5075340;28;20446;-82
2024/02/19 07:41:52;;;;;;;3.80;1.90;;;22.80;62.70;;;;;;5075306;28;20935;-82
2024/02/19 07:44:19;;;;;;;1.80;1.50;;;22.80;62.70;;;;;;5075395;28;20798;-82
2024/02/19 07:46:47;;;;;;;3.70;1.77;;;22.80;62.80;;;;;;5074414;28;20457;-79
2024/02/19 07:49:14;;;;;;;2.90;1.83;;;22.80;62.70;;;;;;5076144;28;20458;-83
2024/02/19 07:51:42;;;;;;;2.83;2.03;;;22.80;62.80;;;;;;5074573;28;20476;-81
2024/02/19 07:54:09;;;;;;;3.13;1.83;;;22.80;62.70;;;;;;5074482;28;20444;-85
2024/02/19 07:56:38;;;;;;;2.53;1.97;;;22.90;62.50;;;;;;5076382;28;20439;-85
2024/02/19 07:59:05;;;;;;;2.40;1.50;;;22.90;63.60;;;;;;5058393;28;20540;-81
2024/02/19 08:01:32;;;;;;;6.60;1.77;;;22.80;62.30;;;;;;5075059;28;20445;-84
2024/02/19 08:03:58;;;;;;;3.47;1.57;;;22.80;62.50;;;;;;5074915;28;20452;-86
2024/02/19 08:06:25;;;;;;;2.03;1.30;;;22.90;62.60;;;;;;5074375;28;22292;-85
2024/02/19 08:08:53;;;;;;;3.47;1.50;;;22.80;62.40;;;;;;5055115;28;20441;-86
2024/02/19 08:11:21;;;;;;;3.40;1.73;;;22.80;62.40;;;;;;5054779;28;20445;-86
2024/02/19 08:13:48;;;;;;;3.20;1.90;;;22.80;62.50;;;;;;5054990;28;20495;-86
2024/02/19 08:16:15;;;;;;;4.50;1.80;;;22.80;62.50;;;;;;5054976;28;20484;-87
2024/02/19 08:18:41;;;;;;;3.87;1.53;;;22.80;62.50;;;;;;5055101;28;20437;-85
2024/02/19 08:21:08;;;;;;;3.00;1.67;;;22.80;62.50;;;;;;5055286;28;20506;-85
2024/02/19 08:23:35;;;;;;;3.63;1.57;;;22.80;62.50;;;;;;5055279;28;20445;-87
2024/02/19 08:26:03;;;;;;;4.53;1.90;;;22.80;62.50;;;;;;5054568;28;20935;-86
2024/02/19 08:28:30;;;;;;;5.60;2.10;;;22.80;62.50;;;;;;5054476;28;20445;-86
2024/02/19 08:30:57;;;;;;;3.33;1.70;;;22.90;62.60;;;;;;5056087;28;21051;-85
2024/02/19 08:33:24;;;;;;;3.57;2.20;;;22.90;62.50;;;;;;5055873;28;20477;-86
2024/02/19 08:35:51;;;;;;;4.23;1.97;;;22.90;62.40;;;;;;5054604;28;20456;-88
2024/02/19 08:38:18;;;;;;;3.93;1.93;;;22.90;62.40;;;;;;5054687;28;20437;-86
2024/02/19 08:40:44;;;;;;;3.87;2.20;;;22.90;62.40;;;;;;5054186;28;20449;-87
2024/02/19 08:43:13;;;;;;;4.00;2.30;;;22.90;62.30;;;;;;5053935;28;20452;-86
2024/02/19 08:45:40;;;;;;;4.60;2.20;;;22.90;62.40;;;;;;5054366;28;20532;-86
2024/02/19 08:48:08;;;;;;;3.93;1.97;;;22.90;62.40;;;;;;5054473;28;20461;-86
2024/02/19 08:50:35;;;;;;;5.73;2.00;;;22.90;62.40;;;;;;5054292;28;20536;-85
2024/02/19 08:53:02;;;;;;;4.53;2.17;;;22.90;62.50;;;;;;5054720;28;20845;-87
2024/02/19 08:55:29;;;;;;;5.10;2.67;;;22.90;62.50;;;;;;5054375;28;20442;-86
2024/02/19 08:57:56;;;;;;;4.70;2.13;;;22.90;62.50;;;;;;5054365;28;20459;-86
2024/02/19 09:00:24;;;;;;;2.60;1.87;;;22.90;62.50;;;;;;5054094;28;20760;-86
2024/02/19 09:02:51;;;;;;;3.90;2.53;;;22.90;62.50;;;;;;5053175;28;20804;-87
2024/02/19 09:05:19;;;;;;;5.10;2.37;;;22.90;62.50;;;;;;5054363;28;20441;-87
2024/02/19 09:07:47;;;;;;;4.83;2.20;;;22.90;62.50;;;;;;5053967;28;20449;-86
2024/02/19 09:10:14;;;;;;;6.57;2.50;;;22.90;62.50;;;;;;5053753;28;20460;-86
2024/02/19 09:12:41;;;;;;;2.60;1.60;;;22.90;62.40;;;;;;5054006;28;20844;-86
2024/02/19 09:15:08;;;;;;;3.00;2.20;;;22.90;62.40;;;;;;5054082;28;20481;-84
2024/02/19 09:17:36;;;;;;;3.10;1.93;;;22.90;62.50;;;;;;5054357;28;20540;-86
2024/02/19 09:20:06;;;;;;;3.57;1.93;;;22.90;62.50;;;;;;5054559;28;20446;-87
2024/02/19 09:22:33;;;;;;;7.43;1.87;;;22.90;62.60;;;;;;5063215;28;20416;-86
2024/02/19 09:25:00;;;;;;;3.93;2.00;;;22.90;62.50;;;;;;5077839;28;20532;-86
2024/02/19 09:27:27;;;;;;;2.40;1.77;;;22.90;62.50;;;;;;5077855;28;20457;-86
2024/02/19 09:29:55;;;;;;;3.30;2.23;;;22.90;62.50;;;;;;5069830;28;20483;-86
2024/02/19 09:32:22;;;;;;;5.53;1.90;;;22.90;62.50;;;;;;5053855;28;20477;-87
2024/02/19 09:34:50;;;;;;;3.73;2.33;;;22.90;62.50;;;;;;5053353;28;20439;-86
2024/02/19 09:37:18;;;;;;;3.80;2.10;;;22.90;63.40;;;;;;5053086;28;20958;-87
2024/02/19 09:39:49;;;;;;;2.87;1.83;;;22.90;62.50;;;;;;5053597;28;20787;-86
2024/02/19 09:42:16;;;;;;;6.63;2.50;;;23.00;62.70;;;;;;5054678;28;20495;-85
2024/02/19 09:44:43;;;;;;;4.27;2.40;;;22.90;62.50;;;;;;5072935;28;20463;-87
2024/02/19 09:47:15;;;;;;;2.97;1.87;;;22.90;62.50;;;;;;5073212;28;20464;-82
2024/02/19 09:49:42;;;;;;;4.50;1.93;;;22.90;62.50;;;;;;5072899;28;20436;-80
2024/02/19 09:52:11;;;;;;;5.40;1.93;;;22.90;62.50;;;;;;5072357;28;20436;-83
2024/02/19 09:54:38;;;;;;;4.23;2.17;;;23.00;63.40;;;;;;5072603;28;20447;-81
2024/02/19 09:57:09;;;;;;;2.20;1.63;;;23.00;62.50;;;;;;5072527;28;20915;-81
2024/02/19 09:59:37;;;;;;;4.53;2.57;;;23.00;62.50;;;;;;5072595;28;20938;-81
2024/02/19 10:02:04;;;;;;;4.17;2.43;;;23.00;62.50;;;;;;5071642;28;20437;-88
2024/02/19 10:04:31;;;;;;;6.17;2.50;;;23.00;62.60;;;;;;5072423;28;20915;-85
2024/02/19 10:07:02;;;;;;;4.47;1.97;;;23.00;62.60;;;;;;5072012;28;20939;-93
2024/02/19 10:09:30;;;;;;;2.53;1.87;;;22.90;62.50;;;;;;5073768;28;20437;-89
2024/02/19 10:11:57;;;;;;;2.97;1.80;;;23.00;62.70;;;;;;5073413;28;20459;-88
2024/02/19 10:14:25;;;;;;;4.40;2.07;;;22.90;62.50;;;;;;5075781;28;20442;-84
2024/02/19 10:16:51;;;;;;;3.83;2.00;;;22.90;62.50;;;;;;5077263;28;20466;-86
2024/02/19 10:19:19;;;;;;;2.93;1.73;;;23.00;62.70;;;;;;5077296;28;20441;-83
2024/02/19 10:21:48;;;;;;;2.87;1.70;;;23.00;62.70;;;;;;5077169;28;20440;-87
2024/02/19 10:24:16;;;;;;;3.60;1.70;;;23.00;62.70;;;;;;5076841;28;20444;-81
2024/02/19 10:26:44;;;;;;;5.00;1.70;;;23.00;62.70;;;;;;5077673;28;20799;-89
2024/02/19 10:29:11;;;;;;;2.70;1.50;;;23.00;63.50;;;;;;5077090;28;20448;-86
2024/02/19 10:31:40;;;;;;;3.03;2.00;;;22.90;62.60;;;;;;5083427;28;20562;-80
2024/02/19 10:34:08;;;;;;;4.13;2.10;;;23.00;62.70;;;;;;5093377;28;20489;-84
2024/02/19 10:36:36;;;;;;;3.43;2.43;;;23.00;62.70;;;;;;5091789;28;20451;-85
2024/02/19 10:39:04;;;;;;;3.87;1.90;;;23.00;62.70;;;;;;5076575;28;20943;-84
2024/02/19 10:41:31;;;;;;;2.97;2.20;;;23.00;62.70;;;;;;5075894;28;20437;-84
2024/02/19 10:43:59;;;;;;;2.63;1.80;;;23.00;62.60;;;;;;5075573;28;20448;-84
2024/02/19 10:46:26;;;;;;;3.63;2.00;;;23.00;62.50;;;;;;5075863;28;20452;-85
2024/02/19 10:48:54;;;;;;;4.00;1.97;;;23.00;62.50;;;;;;5076240;28;20436;-84
2024/02/19 10:51:22;;;;;;;4.17;1.80;;;23.00;62.50;;;;;;5076043;28;20455;-84
2024/02/19 10:53:58;;;;;;;7.27;1.67;;;23.00;62.60;;;;;;5075689;28;20483;-85
2024/02/19 10:56:26;;;;;;;2.90;1.73;;;23.00;62.60;;;;;;5075960;28;20927;-85
2024/02/19 10:58:56;;;;;;;2.87;1.73;;;23.00;62.60;;;;;;5075967;28;20424;-83
2024/02/19 11:01:24;;;;;;;3.13;1.90;;;23.00;62.60;;;;;;5076360;28;21003;-88
2024/02/19 11:03:51;;;;;;;2.70;1.83;;;23.00;62.70;;;;;;5075752;28;20471;-88
2024/02/19 11:06:18;;;;;;;3.33;1.53;;;23.00;62.60;;;;;;5077254;28;20928;-92
2024/02/19 11:08:53;;;;;;;2.90;1.73;;;23.00;62.60;;;;;;5076887;28;20501;-88
2024/02/19 11:11:21;;;;;;;4.73;1.80;;;23.00;62.50;;;;;;5078601;28;20501;-90
2024/02/19 11:13:49;;;;;;;4.60;1.70;;;23.10;62.70;;;;;;5055874;28;20488;-88
2024/02/19 11:16:17;;;;;;;2.50;1.67;;;23.00;62.60;;;;;;5055588;28;20832;-83
2024/02/19 11:18:45;;;;;;;3.50;1.77;;;23.00;62.50;;;;;;5055927;28;20437;-80
2024/02/19 11:21:12;;;;;;;3.70;1.60;;;23.10;62.70;;;;;;5055396;28;20447;-81
2024/02/19 11:23:38;;;;;;;3.47;1.83;;;23.10;62.70;;;;;;5060669;28;20445;-79
2024/02/19 11:26:06;;;;;;;2.53;1.87;;;23.00;62.60;;;;;;5074236;28;20440;-81
2024/02/19 11:28:33;;;;;;;6.30;2.33;;;23.00;62.50;;;;;;5075232;28;20447;-79
2024/02/19 11:31:01;;;;;;;4.43;1.97;;;23.10;62.50;;;;;;5074425;28;20472;-87
2024/02/19 11:33:28;;;;;;;2.33;1.50;;;23.10;62.60;;;;;;5074624;28;20486;-84
2024/02/19 11:35:57;;;;;;;2.70;1.87;;;23.10;62.60;;;;;;5074999;28;20502;-86
2024/02/19 11:38:29;;;;;;;3.30;1.77;;;23.10;62.60;;;;;;5075394;28;20486;-84
2024/02/19 11:40:57;;;;;;;2.80;1.40;;;23.10;62.60;;;;;;5075604;28;20456;-85
2024/02/19 11:43:27;;;;;;;2.77;1.93;;;23.10;62.60;;;;;;5074379;28;20441;-87
2024/02/19 11:45:55;;;;;;;2.90;1.53;;;23.10;62.70;;;;;;5074519;28;20979;-78
2024/02/19 11:48:22;;;;;;;5.40;2.47;;;23.10;62.70;;;;;;5074394;28;20445;-78
2024/02/19 11:50:49;;;;;;;2.60;1.93;;;23.10;62.70;;;;;;5073610;28;21016;-78
2024/02/19 11:53:17;;;;;;;4.30;2.10;;;23.10;62.70;;;;;;5073550;28;20480;-89
2024/02/19 11:55:44;;;;;;;2.70;1.90;;;23.10;62.70;;;;;;5073624;28;20441;-78
2024/02/19 11:58:12;;;;;;;3.13;1.87;;;23.10;62.70;;;;;;5073320;28;20439;-79
2024/02/19 12:00:38;;;;;;;2.83;1.87;;;23.10;62.70;;;;;;5073232;28;20440;-78
2024/02/19 12:03:06;;;;;;;3.17;1.77;;;23.10;62.70;;;;;;5073851;28;20969;-78
2024/02/19 12:05:32;;;;;;;5.47;1.73;;;23.10;62.70;;;;;;5075122;28;20446;-77
2024/02/19 12:07:59;;;;;;;2.37;1.60;;;23.10;62.70;;;;;;5075095;28;20432;-78
2024/02/19 12:10:27;;;;;;;2.37;1.43;;;23.10;62.70;;;;;;5077436;28;20439;-78
2024/02/19 12:12:56;;;;;;;3.20;2.27;;;23.10;62.70;;;;;;5075814;28;20507;-79
2024/02/19 12:15:23;;;;;;;3.47;1.73;;;23.10;62.60;;;;;;5074587;28;20882;-83
2024/02/19 12:17:52;;;;;;;2.87;1.97;;;23.10;62.60;;;;;;5074853;28;20448;-83
2024/02/19 12:20:19;;;;;;;2.73;1.37;;;23.10;62.60;;;;;;5074660;28;20451;-83
2024/02/19 12:22:45;;;;;;;2.43;1.70;;;23.10;63.50;;;;;;5074643;28;20443;-84
2024/02/19 12:25:13;;;;;;;3.10;1.80;;;23.10;62.60;;;;;;5074560;28;20432;-82
2024/02/19 12:27:41;;;;;;;4.17;1.70;;;23.10;62.70;;;;;;5074449;28;21001;-83
2024/02/19 12:30:09;;;;;;;4.77;1.90;;;23.10;62.80;;;;;;5072032;28;20446;-83
2024/02/19 12:32:36;;;;;;;5.40;1.80;;;23.10;62.90;;;;;;5054535;28;20437;-82
2024/02/19 12:35:04;;;;;;;2.63;1.87;;;23.10;63.00;;;;;;5054220;28;20477;-84
2024/02/19 12:37:30;;;;;;;4.40;1.80;;;23.10;63.00;;;;;;5054568;28;20442;-82
2024/02/19 12:39:57;;;;;;;4.73;1.70;;;23.10;63.20;;;;;;5054364;28;20792;-82
2024/02/19 12:42:24;;;;;;;4.30;1.73;;;23.10;63.30;;;;;;5054137;28;20441;-83
2024/02/19 12:44:52;;;;;;;3.37;1.60;;;23.20;63.50;;;;;;5054396;28;20472;-90
2024/02/19 12:47:24;;;;;;;3.20;1.90;;;23.20;63.50;;;;;;5053992;28;20458;-83
2024/02/19 12:49:53;;;;;;;3.70;2.07;;;23.20;63.60;;;;;;5053452;28;20445;-83